Flight Track Log - Related Links

Times and Time Zones

All times are in EDT time to prevent confusion due to time zone crossing. See the N762NC flight status page for this flight to view local times or setup timezone preferences in your user account.

Time Position Orientation Groundspeed Altitude Reporting Facility
EDT Latitude Longitude Course Direction KTS MPH feet Rate Location/Type
Sat 08:38:35 AM 33.6667 -84.3500 328° Northwest 219 252 3,300  Level Atlanta TRACON
Sat 08:39:35 AM 33.7167 -84.2833 48° Northeast 284 327 5,500 2,350 Climbing Atlanta TRACON
Sat 08:40:00 AM 33.9333 -84.4978 349° North  Level FlightAware Approximate
Sat 08:40:35 AM 33.7833 -84.3000 348° North 292 336 8,000  Level Atlanta TRACON
Sat 08:41:00 AM 34.0322 -84.5212 349° North  Level FlightAware Approximate
Sat 08:42:00 AM 34.1256 -84.5454 347° North  Level FlightAware Approximate
Sat 08:42:52 AM 33.9544 -84.4294 328° Northwest 329 379 11,300  Level Atlanta Center
Sat 08:43:00 AM 34.2206 -84.5823 328° Northwest  Level FlightAware Approximate
Sat 08:43:52 AM 34.0375 -84.5050 323° Northwest 368 423 14,200  Level Atlanta Center
Sat 08:44:52 AM 34.1144 -84.5681 326° Northwest 373 429 16,200 1,850 Climbing Atlanta Center
Sat 08:45:52 AM 34.2206 -84.6417 330° Northwest 387 445 17,900 1,950 Climbing Atlanta Center
Sat 08:46:52 AM 34.3206 -84.7078 331° Northwest 404 465 20,100 2,000 Climbing Atlanta Center
Sat 08:47:52 AM 34.4181 -84.7817 328° Northwest 404 465 21,900 1,600 Climbing Atlanta Center
Sat 08:48:52 AM 34.5178 -84.8556 329° Northwest 414 476 23,300 1,250 Climbing Atlanta Center
Sat 08:49:52 AM 34.6300 -84.9247 333° Northwest 436 502 24,400 1,050 Climbing Atlanta Center
Sat 08:50:52 AM 34.7256 -84.9942 329° Northwest 443 510 25,400 800 Climbing Atlanta Center
Sat 08:51:52 AM 34.8292 -85.0864 324° Northwest 455 524 26,000 300 Climbing Atlanta Center
Sat 08:52:52 AM 34.9392 -85.1664 329° Northwest 466 536 26,000  Level Atlanta Center
Sat 08:53:52 AM 35.0467 -85.2514 327° Northwest 466 536 26,000 -100 Level Atlanta Center
Sat 08:54:52 AM 35.1292 -85.3619 312° West 450 518 25,800 -750 Descending Atlanta Center
Sat 08:55:52 AM 35.2175 -85.4803 312° West 437 503 24,500 -800 Descending Atlanta Center
Sat 08:57:07 AM 35.3064 -85.6094 310° West 425 489 24,000 -627 Descending Memphis Center
Sat 08:58:06 AM 35.3853 -85.7094 314° West 418 481 23,100 -1,300 Descending Memphis Center
Sat 08:59:07 AM 35.4642 -85.8094 314° West 412 474 21,400 -1,750 Descending Memphis Center
Sat 09:00:06 AM 35.5431 -85.9175 312° West 412 474 19,600 -2,017 Descending Memphis Center
Sat 09:01:06 AM 35.6197 -86.0181 313° West 412 474 17,400 -2,500 Descending Memphis Center
Sat 09:02:06 AM 35.6981 -86.1136 315° West 405 466 14,600 -2,850 Descending Memphis Center
Sat 09:03:06 AM 35.7808 -86.2167 315° West 393 452 11,700 -1,884 Descending Memphis Center
Sat 09:04:07 AM 35.8461 -86.3031 313° West 367 422 10,800 -1,050 Descending Memphis Center
Sat 09:05:06 AM 35.9069 -86.3744 316° Northwest 329 379 9,600 -1,563 Descending Memphis Center
Sat 09:06:06 AM 35.9614 -86.4461 313° West 299 344 7,700 -1,700 Descending Memphis Center
Sat 09:07:06 AM 36.0075 -86.5261 305° West 292 336 6,200 -1,250 Descending Memphis Center
Sat 09:08:06 AM 36.0717 -86.5719 330° Northwest 264 304 5,200 -950 Descending Memphis Center
Sat 09:09:06 AM 36.1458 -86.5453 16° North 247 284 4,300 -1,100 Descending Memphis Center
Sat 09:10:06 AM 36.2139 -86.5242 14° North 252 290 3,000 -1,100 Descending Memphis Center
Sat 09:11:06 AM 36.2650 -86.5525 336° Northwest 217 250 2,100 -496 Descending Memphis Center
Sat 09:12:07 AM 36.2606 -86.6144 265° West 143 165 2,000 -50 Descending Memphis Center
Sat 09:13:06 AM 36.2239 -86.6444 213° Southwest 117 135 2,000 -303 Level Memphis Center
Sat 09:14:06 AM 36.1786 -86.6619 197° South 149 171 1,400 -650 Descending Memphis Center
Sat 09:15:06 AM 36.1414 -86.6767 198° South 157 181 700 -700 Descending Memphis Center

Login

Don't have an account? Register now (free) for customized features, flight alerts, and more!